Time;durP1;ratioP1;P1;durP2;ratioP2;P2;SDS_P1;SDS_P2;PMS_P1;PMS_P2;Temp;Humidity;BMP_temperature;BMP_pressure;BME280_temperature;BME280_humidity;BME280_pressure;Samples;Min_cycle;Max_cycle;Signal;HPM_P1;HPM_P2
2023/03/21 00:02:55;;;;;;;30.25;16.10;;;;;;;3.25;67.16;100702.48;1671039;86;21248;-61
2023/03/21 00:06:03;;;;;;;27.48;15.98;;;;;;;3.29;67.22;100700.41;1671019;85;21216;-61
2023/03/21 00:09:08;;;;;;;32.30;15.40;;;;;;;3.33;67.27;100693.27;1671057;86;21541;-60
2023/03/21 00:12:15;;;;;;;33.78;16.70;;;;;;;3.38;67.30;100695.64;1652491;86;21309;-62
2023/03/21 00:15:21;;;;;;;32.83;16.60;;;;;;;3.39;67.34;100684.69;1667985;86;21205;-62
2023/03/21 00:18:29;;;;;;;32.98;16.02;;;;;;;3.42;67.38;100689.85;1676358;85;21240;-60
2023/03/21 00:21:37;;;;;;;36.68;14.47;;;;;;;3.43;67.37;100690.20;1731247;82;21213;-60
2023/03/21 00:24:45;;;;;;;33.88;15.68;;;;;;;3.44;67.36;100689.21;1730489;83;21382;-60
2023/03/21 00:27:51;;;;;;;31.93;15.83;;;;;;;3.41;67.17;100688.11;1730952;83;21426;-60
2023/03/21 00:30:57;;;;;;;33.33;14.58;;;;;;;3.33;66.94;100690.56;1730874;83;21256;-61
2023/03/21 00:34:03;;;;;;;31.65;15.45;;;;;;;3.28;66.81;100685.17;1731189;82;21197;-61
2023/03/21 00:37:10;;;;;;;33.98;15.18;;;;;;;3.27;66.87;100684.81;1715770;83;21413;-61
2023/03/21 00:40:19;;;;;;;25.88;13.72;;;;;;;3.25;66.89;100676.80;1731095;83;21288;-61
2023/03/21 00:43:29;;;;;;;33.30;14.25;;;;;;;3.25;66.94;100679.50;1731049;83;21355;-62
2023/03/21 00:46:34;;;;;;;29.80;14.33;;;;;;;3.26;67.07;100680.37;1731009;83;21205;-62
2023/03/21 00:49:43;;;;;;;32.60;13.95;;;;;;;3.27;67.13;100669.42;1731086;83;21346;-62
2023/03/21 00:52:51;;;;;;;30.70;13.38;;;;;;;3.30;67.22;100665.12;1731231;82;21359;-61
2023/03/21 00:55:57;;;;;;;34.78;14.35;;;;;;;3.34;67.25;100667.96;1731317;83;21181;-61
2023/03/21 00:59:03;;;;;;;34.98;14.47;;;;;;;3.37;67.26;100660.95;1731492;81;21312;-61
2023/03/21 01:02:13;;;;;;;28.52;13.68;;;;;;;3.41;67.36;100662.92;1731438;83;21228;-60
2023/03/21 01:06:00;;;;;;;29.90;14.43;;;;;;;3.44;67.45;100657.26;1731494;82;21197;-61
2023/03/21 01:08:28;;;;;;;29.65;15.20;;;;;;;3.50;67.67;100650.86;1731575;83;21221;-60
2023/03/21 01:11:36;;;;;;;34.25;14.73;;;;;;;3.55;67.69;100651.83;1731611;82;21201;-61
2023/03/21 01:14:42;;;;;;;30.95;15.32;;;;;;;3.57;67.73;100652.06;1731615;83;21224;-61
2023/03/21 01:17:48;;;;;;;29.02;15.20;;;;;;;3.58;67.71;100636.70;1731502;83;21177;-61
2023/03/21 01:20:55;;;;;;;35.10;15.80;;;;;;;3.63;67.82;100635.31;1731446;82;21443;-60
2023/03/21 01:24:01;;;;;;;29.20;15.55;;;;;;;3.68;67.92;100632.27;1731290;83;21186;-61
2023/03/21 01:27:09;;;;;;;35.28;15.75;;;;;;;3.70;67.85;100637.03;1731534;83;21334;-60
2023/03/21 01:30:18;;;;;;;31.25;14.28;;;;;;;3.72;67.85;100626.46;1716556;82;21241;-61
2023/03/21 01:33:27;;;;;;;30.48;14.78;;;;;;;3.74;67.79;100629.04;1716946;83;21282;-60
2023/03/21 01:36:32;;;;;;;38.28;14.23;;;;;;;3.71;67.79;100624.72;1734711;82;21221;-61
2023/03/21 01:39:41;;;;;;;37.03;15.45;;;;;;;3.73;67.98;100621.40;1731515;83;21201;-61
2023/03/21 01:42:48;;;;;;;33.53;14.53;;;;;;;3.74;67.99;100621.75;1731336;83;21336;-61
2023/03/21 01:46:48;;;;;;;32.90;15.70;;;;;;;3.73;67.95;100622.75;1731464;82;21200;-61
2023/03/21 01:50:11;;;;;;;30.45;14.87;;;;;;;3.70;67.82;100631.13;1731273;83;21371;-61
2023/03/21 01:53:28;;;;;;;37.63;17.05;;;;;;;3.63;67.83;100627.20;1731959;81;21436;-61
2023/03/21 01:56:40;;;;;;;43.87;23.27;;;;;;;3.65;67.96;100633.35;1731091;83;21343;-61
2023/03/21 01:59:53;;;;;;;59.67;25.65;;;;;;;3.63;67.92;100621.78;1731135;83;21197;-61
2023/03/21 02:03:16;;;;;;;57.10;29.23;;;;;;;3.58;67.85;100628.09;1731132;83;21194;-61
2023/03/21 02:06:47;;;;;;;50.15;29.98;;;;;;;3.59;68.11;100620.33;1731064;83;21284;-62
2023/03/21 02:09:58;;;;;;;66.87;38.03;;;;;;;3.62;68.24;100619.20;1731489;82;21327;-62
2023/03/21 02:13:10;;;;;;;48.87;27.40;;;;;;;3.63;68.22;100633.96;1731014;83;21189;-62
2023/03/21 02:16:50;;;;;;;43.52;24.43;;;;;;;3.54;67.92;100627.09;1731105;83;21196;-60
2023/03/21 02:20:24;;;;;;;41.07;23.03;;;;;;;3.45;67.94;100623.30;1731392;82;21201;-60
2023/03/21 02:23:54;;;;;;;41.58;22.37;;;;;;;3.47;68.15;100630.81;1731163;82;21560;-61
2023/03/21 02:27:10;;;;;;;48.15;25.48;;;;;;;3.43;68.17;100625.27;1731208;82;21370;-61
2023/03/21 02:30:52;;;;;;;49.50;27.07;;;;;;;3.49;68.43;100627.47;1730902;83;21260;-61
2023/03/21 02:34:27;;;;;;;61.95;32.85;;;;;;;3.51;68.50;100617.88;1724870;82;21671;-61
2023/03/21 02:37:47;;;;;;;58.95;30.40;;;;;;;3.54;68.64;100627.95;1731115;83;21327;-61
2023/03/21 02:41:15;;;;;;;58.02;31.17;;;;;;;3.60;68.73;100626.61;1731361;82;21439;-61
2023/03/21 02:44:37;;;;;;;43.25;25.62;;;;;;;3.54;68.46;100614.43;1731183;83;21425;-61
2023/03/21 02:48:03;;;;;;;50.33;23.87;;;;;;;3.57;68.63;100614.69;1710775;82;21253;-61
2023/03/21 02:51:09;;;;;;;63.60;27.13;;;;;;;3.62;68.76;100614.66;1668246;85;21261;-61
2023/03/21 02:54:19;;;;;;;47.78;24.47;;;;;;;3.66;68.78;100610.73;1677551;82;21319;-61
2023/03/21 02:57:27;;;;;;;46.30;23.00;;;;;;;3.69;68.88;100609.61;1730585;82;21193;-61
2023/03/21 03:00:37;;;;;;;41.25;22.05;;;;;;;3.73;68.94;100607.87;1731142;83;21221;-61
2023/03/21 03:03:47;;;;;;;39.75;20.55;;;;;;;3.77;68.98;100597.17;1734252;82;21197;-61
2023/03/21 03:07:23;;;;;;;39.83;21.35;;;;;;;3.80;69.02;100593.33;1731106;83;21236;-61
2023/03/21 03:10:56;;;;;;;51.75;21.90;;;;;;;3.83;69.03;100598.00;1731109;83;21220;-61
2023/03/21 03:14:15;;;;;;;40.55;19.70;;;;;;;3.85;69.06;100594.69;1731244;83;21245;-60
2023/03/21 03:17:54;;;;;;;41.23;19.65;;;;;;;3.86;69.06;100604.52;1732735;83;21201;-60
2023/03/21 03:21:12;;;;;;;51.48;22.27;;;;;;;3.86;69.07;100599.09;1731690;83;21344;-60
2023/03/21 03:24:33;;;;;;;37.78;20.62;;;;;;;3.88;69.11;100595.78;1731115;83;21335;-60
2023/03/21 03:27:43;;;;;;;46.97;22.00;;;;;;;3.89;69.12;100598.84;1731390;83;21173;-60
2023/03/21 03:30:50;;;;;;;45.95;19.87;;;;;;;3.89;69.15;100592.55;1730983;82;21209;-60
2023/03/21 03:34:02;;;;;;;45.48;21.70;;;;;;;3.91;69.16;100594.16;1731150;83;21181;-61
2023/03/21 03:37:10;;;;;;;44.75;21.45;;;;;;;3.91;69.15;100596.87;1731045;82;21203;-60
2023/03/21 03:40:22;;;;;;;42.70;19.12;;;;;;;3.86;68.99;100590.97;1731132;81;21398;-60
2023/03/21 03:43:50;;;;;;;46.28;21.90;;;;;;;3.81;68.87;100590.49;1731161;83;21244;-61
2023/03/21 03:47:11;;;;;;;49.53;21.45;;;;;;;3.78;68.88;100597.52;1731200;83;21343;-61
2023/03/21 03:50:45;;;;;;;56.25;22.15;;;;;;;3.77;68.95;100595.81;1731635;82;21418;-61
2023/03/21 03:53:56;;;;;;;39.83;21.77;;;;;;;3.79;69.07;100596.52;1732037;80;21390;-61
2023/03/21 03:57:03;;;;;;;53.63;21.93;;;;;;;3.80;69.11;100592.84;1731008;82;21205;-61
2023/03/21 04:00:11;;;;;;;50.95;23.10;;;;;;;3.83;69.16;100598.48;1730767;83;21236;-61
2023/03/21 04:03:17;;;;;;;46.23;21.65;;;;;;;3.82;69.16;100589.49;1730915;83;21220;-61
2023/03/21 04:06:24;;;;;;;46.55;21.82;;;;;;;3.83;69.29;100584.47;1730817;83;21576;-61
2023/03/21 04:09:30;;;;;;;54.35;21.87;;;;;;;3.85;69.39;100590.63;1730991;83;21252;-61
2023/03/21 04:12:40;;;;;;;37.63;21.20;;;;;;;3.85;69.40;100582.50;1730806;83;21244;-59
2023/03/21 04:15:59;;;;;;;44.00;21.23;;;;;;;3.85;69.36;100581.62;1730958;83;21288;-59
2023/03/21 04:19:07;;;;;;;47.05;22.30;;;;;;;3.89;69.44;100585.78;1730822;83;21182;-58
2023/03/21 04:22:12;;;;;;;62.48;22.15;;;;;;;3.91;69.48;100587.88;1730936;82;21185;-58
2023/03/21 04:25:18;;;;;;;45.80;20.95;;;;;;;3.96;69.51;100591.06;1730686;83;21264;-58
2023/03/21 04:28:28;;;;;;;48.42;22.27;;;;;;;3.98;69.48;100588.58;1716220;82;21205;-57
2023/03/21 04:31:48;;;;;;;54.70;22.20;;;;;;;4.02;69.44;100591.41;1729192;81;21299;-59
2023/03/21 04:34:57;;;;;;;50.28;23.32;;;;;;;4.05;69.43;100591.63;1731054;82;21177;-58
2023/03/21 04:38:01;;;;;;;45.92;21.33;;;;;;;4.10;69.48;100591.62;1730771;83;21374;-58
2023/03/21 04:41:07;;;;;;;45.55;21.85;;;;;;;4.10;69.36;100598.39;1731448;82;21382;-59
2023/03/21 04:44:14;;;;;;;48.00;22.77;;;;;;;4.10;69.38;100598.88;1730858;82;21189;-59
2023/03/21 04:47:22;;;;;;;43.90;22.55;;;;;;;4.11;69.34;100586.56;1730655;83;21252;-59
2023/03/21 04:50:28;;;;;;;42.73;22.20;;;;;;;4.10;69.25;100596.17;1730809;82;21232;-57
2023/03/21 04:53:37;;;;;;;40.25;21.02;;;;;;;4.11;69.36;100597.88;1731591;82;21217;-57
2023/03/21 04:56:44;;;;;;;50.35;21.33;;;;;;;4.14;69.35;100596.26;1731611;80;21259;-58
2023/03/21 04:59:51;;;;;;;48.15;23.05;;;;;;;4.15;69.30;100600.23;1730911;83;21190;-59
2023/03/21 05:02:59;;;;;;;50.38;21.75;;;;;;;4.18;69.31;100604.52;1724631;81;21217;-59
2023/03/21 05:06:03;;;;;;;38.73;19.80;;;;;;;4.19;69.24;100600.31;1701669;84;21225;-58
2023/03/21 05:09:09;;;;;;;45.83;20.85;;;;;;;4.19;69.27;100600.31;1701569;84;21205;-59
2023/03/21 05:12:14;;;;;;;41.55;20.48;;;;;;;4.26;69.37;100604.23;1698647;84;21260;-58
2023/03/21 05:15:22;;;;;;;46.77;21.62;;;;;;;4.33;69.46;100595.06;1701795;84;21224;-58
2023/03/21 05:18:29;;;;;;;43.83;20.80;;;;;;;4.43;69.61;100603.65;1701736;83;21390;-59
2023/03/21 05:21:40;;;;;;;34.35;19.20;;;;;;;4.54;69.72;100601.36;1701616;84;21225;-56
2023/03/21 05:24:49;;;;;;;43.33;20.77;;;;;;;4.61;69.68;100601.20;1701769;84;21256;-57
2023/03/21 05:28:00;;;;;;;44.03;21.25;;;;;;;4.69;69.59;100607.31;1701230;84;21244;-57
2023/03/21 05:31:07;;;;;;;40.70;21.40;;;;;;;4.73;69.45;100601.48;1701533;84;21260;-57
2023/03/21 05:34:17;;;;;;;42.05;21.62;;;;;;;4.77;69.39;100602.08;1720861;83;21212;-57
2023/03/21 05:37:24;;;;;;;45.75;21.30;;;;;;;4.79;69.37;100599.59;1745976;80;21228;-59
2023/03/21 05:40:32;;;;;;;44.73;19.40;;;;;;;4.81;69.44;100601.67;1729967;82;21601;-59
2023/03/21 05:43:39;;;;;;;42.23;21.95;;;;;;;4.86;69.47;100601.27;1729465;82;21213;-57
2023/03/21 05:46:48;;;;;;;47.25;22.05;;;;;;;4.89;69.43;100598.28;1728856;82;21228;-59
2023/03/21 05:50:13;;;;;;;51.55;22.52;;;;;;;4.94;69.38;100602.33;1729037;82;21216;-57
2023/03/21 05:53:21;;;;;;;46.77;22.85;;;;;;;5.03;69.45;100604.22;1731970;82;21840;-57
2023/03/21 05:56:28;;;;;;;42.53;22.35;;;;;;;5.10;69.47;100594.56;1722211;80;21262;-57
2023/03/21 05:59:37;;;;;;;51.48;22.80;;;;;;;5.20;69.51;100596.80;1770736;80;21401;-57
2023/03/21 06:02:43;;;;;;;44.90;22.93;;;;;;;5.29;69.50;100608.70;1745699;81;21785;-57
2023/03/21 06:05:52;;;;;;;52.55;23.00;;;;;;;5.37;69.51;100600.23;1767389;79;21359;-58
2023/03/21 06:09:02;;;;;;;49.10;23.73;;;;;;;5.40;69.37;100599.09;1710606;82;21799;-57
2023/03/21 06:12:13;;;;;;;45.03;24.00;;;;;;;5.44;69.36;100606.81;1772053;79;21347;-58
2023/03/21 06:15:35;;;;;;;46.58;23.18;;;;;;;5.58;69.66;100602.87;1735978;79;21257;-59
2023/03/21 06:18:47;;;;;;;53.10;25.00;;;;;;;5.76;69.74;100607.98;1771076;80;21931;-59
2023/03/21 06:21:58;;;;;;;56.35;25.17;;;;;;;5.93;69.79;100600.03;1768819;79;21208;-59
2023/03/21 06:25:06;;;;;;;44.15;23.20;;;;;;;6.07;69.72;100598.25;1769527;79;21322;-57
2023/03/21 06:28:11;;;;;;;40.03;22.52;;;;;;;6.22;69.62;100597.83;1728508;82;21737;-58
2023/03/21 06:31:24;;;;;;;52.15;24.07;;;;;;;6.36;69.64;100603.70;1728574;81;21350;-57
2023/03/21 06:34:30;;;;;;;49.03;24.70;;;;;;;6.51;69.59;100595.97;1738522;80;21189;-58
2023/03/21 06:37:39;;;;;;;47.13;22.90;;;;;;;6.66;69.67;100601.33;1760981;81;21190;-58
2023/03/21 06:40:46;;;;;;;54.48;25.90;;;;;;;6.81;69.65;100615.69;1770592;81;21276;-59
2023/03/21 06:43:54;;;;;;;51.45;25.48;;;;;;;6.95;69.70;100603.47;1770994;81;21174;-58
2023/03/21 06:47:03;;;;;;;51.75;26.45;;;;;;;7.13;69.84;100606.66;1770775;81;21274;-59
2023/03/21 06:50:11;;;;;;;60.38;27.00;;;;;;;7.32;69.91;100601.13;1772634;79;21205;-59
2023/03/21 06:53:17;;;;;;;46.53;25.20;;;;;;;7.43;69.71;100599.58;1734198;81;21780;-59
2023/03/21 06:56:38;;;;;;;55.10;25.82;;;;;;;7.55;69.68;100598.36;1758514;81;21181;-59
2023/03/21 06:59:48;;;;;;;51.80;26.62;;;;;;;7.66;69.67;100600.53;1753150;80;21729;-59
2023/03/21 07:02:57;;;;;;;57.50;24.77;;;;;;;7.75;69.53;100594.16;1772637;80;21213;-58
2023/03/21 07:06:04;;;;;;;52.62;26.75;;;;;;;7.82;69.50;100593.39;1761577;79;21390;-60
2023/03/21 07:09:16;;;;;;;43.90;25.85;;;;;;;7.93;69.57;100584.16;1741225;82;21268;-60
2023/03/21 07:12:23;;;;;;;51.10;26.68;;;;;;;7.99;69.59;100587.09;1741490;80;21272;-59
2023/03/21 07:15:33;;;;;;;57.70;26.97;;;;;;;8.02;69.54;100588.18;1741561;81;21228;-59
2023/03/21 07:18:41;;;;;;;57.50;27.75;;;;;;;8.03;69.36;100589.02;1741893;82;21690;-58
2023/03/21 07:21:48;;;;;;;44.33;25.00;;;;;;;8.01;69.30;100593.26;1741603;81;21213;-59
2023/03/21 07:24:54;;;;;;;53.25;25.95;;;;;;;8.05;69.44;100596.55;1742021;82;21354;-58
2023/03/21 07:28:07;;;;;;;53.38;27.55;;;;;;;8.09;69.55;100594.70;1769288;79;21204;-60
2023/03/21 07:31:13;;;;;;;46.70;27.02;;;;;;;8.13;69.60;100591.17;1770818;81;21571;-59
2023/03/21 07:34:18;;;;;;;58.35;28.15;;;;;;;8.19;69.65;100598.73;1771951;80;21186;-60
2023/03/21 07:37:27;;;;;;;50.50;26.40;;;;;;;8.26;69.65;100598.50;1755274;81;21390;-60
2023/03/21 07:40:39;;;;;;;52.67;26.37;;;;;;;8.36;69.67;100597.89;1768941;80;21523;-57
2023/03/21 07:43:47;;;;;;;43.73;24.60;;;;;;;8.52;69.73;100599.41;1766943;79;21225;-58
2023/03/21 07:46:56;;;;;;;51.42;27.40;;;;;;;8.67;69.76;100596.48;1770035;80;21165;-59
2023/03/21 07:50:03;;;;;;;50.43;27.13;;;;;;;8.85;69.72;100595.42;1760748;79;21621;-59
2023/03/21 07:53:10;;;;;;;46.70;26.80;;;;;;;8.99;69.59;100589.37;1760546;79;21256;-58
2023/03/21 07:56:18;;;;;;;51.02;25.60;;;;;;;9.10;69.48;100596.45;1743844;80;21204;-59
2023/03/21 07:59:26;;;;;;;44.03;23.12;;;;;;;9.19;69.41;100594.11;1739554;81;21224;-57
2023/03/21 08:02:32;;;;;;;42.25;23.87;;;;;;;9.28;69.36;100596.36;1761645;81;21177;-58
2023/03/21 08:05:43;;;;;;;42.00;21.30;;;;;;;9.40;69.32;100591.84;1734611;82;21801;-59
2023/03/21 08:08:49;;;;;;;43.83;23.98;;;;;;;9.50;69.26;100596.66;1735080;82;21421;-58
2023/03/21 08:11:55;;;;;;;42.23;22.40;;;;;;;9.58;69.34;100594.45;1734894;81;21714;-58
2023/03/21 08:15:03;;;;;;;37.88;23.55;;;;;;;9.65;69.33;100588.69;1735349;82;21216;-58
2023/03/21 08:18:10;;;;;;;42.30;23.90;;;;;;;9.70;69.36;100591.80;1698527;83;21235;-58
2023/03/21 08:21:21;;;;;;;39.53;22.27;;;;;;;9.77;69.42;100591.45;1705861;83;21393;-57
2023/03/21 08:24:27;;;;;;;49.45;24.92;;;;;;;9.87;69.36;100589.45;1726170;82;21196;-57
2023/03/21 08:27:34;;;;;;;69.53;31.68;;;;;;;9.91;69.24;100583.48;1734135;82;21208;-59
2023/03/21 08:30:41;;;;;;;54.30;26.55;;;;;;;9.93;69.15;100577.34;1719341;82;21273;-58
2023/03/21 08:33:52;;;;;;;47.10;26.15;;;;;;;9.95;69.22;100578.04;1768218;81;21883;-58
2023/03/21 08:37:01;;;;;;;43.10;24.43;;;;;;;9.95;69.19;100579.41;1767765;81;21189;-60
2023/03/21 08:40:29;;;;;;;41.63;24.23;;;;;;;9.97;69.27;100581.44;1765730;81;21335;-57
2023/03/21 08:43:46;;;;;;;46.92;23.75;;;;;;;10.01;69.25;100581.47;1740344;81;21961;-60
2023/03/21 08:47:12;;;;;;;46.37;26.35;;;;;;;10.04;69.26;100581.12;1728873;82;21959;-60
2023/03/21 08:50:34;;;;;;;41.13;26.17;;;;;;;10.11;69.33;100571.77;1734333;81;21582;-60
2023/03/21 08:53:59;;;;;;;41.75;24.60;;;;;;;10.18;69.39;100569.55;1697967;83;21746;-60
2023/03/21 08:57:09;;;;;;;45.60;26.45;;;;;;;10.29;69.50;100570.59;1731023;82;21698;-59
2023/03/21 09:00:21;;;;;;;38.00;23.87;;;;;;;10.37;69.49;100571.10;1723890;80;21233;-59
2023/03/21 09:03:33;;;;;;;38.90;24.27;;;;;;;10.47;69.48;100571.80;1764390;80;21169;-60
2023/03/21 09:06:44;;;;;;;44.77;24.82;;;;;;;10.58;69.43;100573.37;1768239;79;21259;-59
2023/03/21 09:09:51;;;;;;;45.20;25.97;;;;;;;10.64;69.23;100568.56;1771055;80;21217;-59
2023/03/21 09:13:02;;;;;;;35.90;24.00;;;;;;;10.65;69.21;100555.21;1742096;82;21300;-59
2023/03/21 09:16:32;;;;;;;44.10;24.32;;;;;;;10.67;69.06;100558.64;1759247;81;21757;-59
2023/03/21 09:19:39;;;;;;;41.63;24.12;;;;;;;10.70;69.18;100552.31;1769184;81;21241;-59
2023/03/21 09:22:49;;;;;;;42.40;26.57;;;;;;;10.74;69.17;100555.53;1741262;82;21327;-59
2023/03/21 09:25:55;;;;;;;42.85;24.77;;;;;;;10.77;69.25;100554.69;1741661;81;21221;-59
2023/03/21 09:29:04;;;;;;;41.42;25.75;;;;;;;10.86;69.39;100555.55;1741997;82;21228;-59
2023/03/21 09:32:12;;;;;;;49.95;27.00;;;;;;;10.98;69.50;100552.27;1742803;81;21403;-60
2023/03/21 09:35:21;;;;;;;44.63;25.50;;;;;;;11.09;69.51;100551.89;1742086;81;21422;-60
2023/03/21 09:38:29;;;;;;;42.58;25.68;;;;;;;11.16;69.48;100552.05;1742206;82;21209;-60
2023/03/21 09:42:13;;;;;;;42.48;24.50;;;;;;;11.21;69.45;100557.33;1747753;81;21362;-61
2023/03/21 09:45:38;;;;;;;38.40;25.43;;;;;;;11.32;69.50;100551.47;1770411;79;21358;-62
2023/03/21 09:48:55;;;;;;;41.45;23.90;;;;;;;11.50;69.53;100556.72;1741944;82;21346;-61
2023/03/21 09:52:04;;;;;;;41.15;25.15;;;;;;;11.65;69.55;100557.73;1748248;81;21189;-60
2023/03/21 09:55:17;;;;;;;41.83;24.47;;;;;;;11.81;69.48;100545.31;1770792;79;21392;-60
2023/03/21 09:58:39;;;;;;;40.75;24.30;;;;;;;11.99;69.50;100540.38;1772275;80;21186;-60
2023/03/21 10:01:47;;;;;;;38.30;23.83;;;;;;;12.18;69.42;100544.03;1759257;80;21177;-60
2023/03/21 10:04:57;;;;;;;36.80;23.73;;;;;;;12.37;69.27;100542.17;1770529;80;21205;-58
2023/03/21 10:08:13;;;;;;;42.00;25.75;;;;;;;12.48;69.20;100540.36;1725310;81;21277;-59
2023/03/21 10:11:31;;;;;;;48.38;27.05;;;;;;;12.59;69.16;100535.80;1763969;79;21193;-61
2023/03/21 10:14:48;;;;;;;39.40;24.95;;;;;;;12.68;69.03;100526.98;1769738;79;21236;-60
2023/03/21 10:18:08;;;;;;;54.05;31.37;;;;;;;12.73;68.93;100521.25;1777564;80;21767;-60
2023/03/21 10:21:15;;;;;;;37.70;25.82;;;;;;;12.74;68.84;100531.22;1766679;80;21204;-60
2023/03/21 10:24:29;;;;;;;38.98;25.77;;;;;;;12.68;68.66;100525.10;1768985;80;21245;-63
2023/03/21 10:27:36;;;;;;;38.08;24.67;;;;;;;12.72;68.75;100533.29;1768983;80;21190;-60
2023/03/21 10:31:16;;;;;;;;;;;;;;;;;;;;;
2023/03/21 10:34:23;;;;;;;34.50;22.80;;;;;;;12.90;68.80;100526.94;1743965;81;21296;-59
2023/03/21 10:37:30;;;;;;;36.98;22.37;;;;;;;13.00;68.81;100517.92;1738900;82;21378;-58
2023/03/21 10:40:37;;;;;;;36.35;23.90;;;;;;;13.14;68.80;100519.85;1705119;82;21216;-59
2023/03/21 10:43:44;;;;;;;35.15;22.73;;;;;;;13.28;68.80;100509.38;1692075;85;21229;-59
2023/03/21 10:47:00;;;;;;;43.13;25.57;;;;;;;13.45;68.68;100514.99;1692184;83;21237;-60
2023/03/21 10:50:14;;;;;;;49.98;35.30;;;;;;;13.52;68.50;100510.42;1677224;84;21272;-61
2023/03/21 10:53:34;;;;;;;47.05;32.35;;;;;;;13.55;68.38;100513.33;1689985;82;21201;-59
2023/03/21 10:56:43;;;;;;;37.00;25.57;;;;;;;13.60;68.30;100506.73;1725169;81;21773;-60
2023/03/21 11:00:15;;;;;;;36.23;24.67;;;;;;;13.70;68.24;100514.69;1702701;83;21228;-58
2023/03/21 11:03:34;;;;;;;37.53;25.50;;;;;;;13.78;68.31;100509.91;1719275;82;21221;-59
2023/03/21 11:06:46;;;;;;;37.48;25.82;;;;;;;13.91;68.28;100502.32;1761771;79;21722;-59
2023/03/21 11:09:59;;;;;;;34.40;24.40;;;;;;;14.02;68.23;100487.53;1769416;79;21182;-60
2023/03/21 11:13:14;;;;;;;36.60;24.50;;;;;;;14.10;68.12;100489.30;1770288;80;21784;-63
2023/03/21 11:16:34;;;;;;;35.88;24.27;;;;;;;14.32;68.12;100493.28;1758336;80;21297;-61
2023/03/21 11:19:43;;;;;;;34.33;23.25;;;;;;;14.46;67.99;100476.36;1763239;80;21153;-61
2023/03/21 11:22:50;;;;;;;33.60;24.07;;;;;;;14.64;68.03;100478.95;1734892;81;21184;-60
2023/03/21 11:25:57;;;;;;;34.33;23.20;;;;;;;14.77;67.85;100472.17;1763162;79;21741;-60
2023/03/21 11:29:04;;;;;;;35.58;23.00;;;;;;;14.88;67.66;100468.00;1764722;80;21209;-61
2023/03/21 11:32:40;;;;;;;38.38;25.35;;;;;;;14.90;67.36;100463.97;1761983;80;21189;-61
2023/03/21 11:35:46;;;;;;;34.63;23.47;;;;;;;15.00;67.43;100463.61;1769161;80;21267;-61
2023/03/21 11:39:07;;;;;;;35.88;24.47;;;;;;;15.26;67.46;100468.44;1710543;82;21216;-61
2023/03/21 11:42:35;;;;;;;36.42;24.35;;;;;;;15.32;67.28;100471.23;1739825;81;21355;-62
2023/03/21 11:45:44;;;;;;;40.10;26.20;;;;;;;15.56;67.26;100468.00;1764835;79;21236;-64
2023/03/21 11:48:54;;;;;;;37.48;25.95;;;;;;;15.71;67.00;100467.84;1762679;81;21201;-62
2023/03/21 11:52:07;;;;;;;36.45;25.15;;;;;;;15.74;66.71;100452.25;1742176;81;21276;-62
2023/03/21 11:55:34;;;;;;;36.33;25.25;;;;;;;15.79;66.61;100456.07;1738015;81;21205;-63
2023/03/21 11:59:12;;;;;;;33.30;24.20;;;;;;;15.87;66.43;100455.89;1763909;79;21174;-63
2023/03/21 12:02:36;;;;;;;33.80;23.38;;;;;;;15.77;66.13;100449.06;1738493;81;21197;-64
2023/03/21 12:05:49;;;;;;;34.48;23.80;;;;;;;15.76;66.04;100452.34;1739352;81;22088;-63
2023/03/21 12:09:08;;;;;;;32.78;22.70;;;;;;;15.87;66.03;100451.74;1753285;80;21718;-63
2023/03/21 12:12:41;;;;;;;31.85;23.98;;;;;;;16.00;65.99;100440.73;1754458;80;21170;-63
2023/03/21 12:16:21;;;;;;;32.58;22.30;;;;;;;16.07;65.71;100443.00;1750072;80;21251;-62
2023/03/21 12:19:57;;;;;;;32.67;22.50;;;;;;;16.11;65.52;100440.12;1757107;80;21753;-64
2023/03/21 12:23:16;;;;;;;30.17;21.33;;;;;;;16.19;65.40;100428.01;1731717;81;21538;-62
2023/03/21 12:26:53;;;;;;;33.40;22.52;;;;;;;16.29;65.23;100429.31;1767195;80;21209;-64
2023/03/21 12:30:32;;;;;;;31.40;21.45;;;;;;;16.34;65.08;100425.91;1756938;79;21667;-64
2023/03/21 12:33:55;;;;;;;27.67;19.35;;;;;;;16.44;64.96;100428.59;1755997;80;21169;-64
2023/03/21 12:37:24;;;;;;;29.32;19.20;;;;;;;16.47;64.71;100419.56;1752776;79;21182;-62
2023/03/21 12:41:02;;;;;;;27.13;19.80;;;;;;;16.55;64.65;100418.83;1761875;79;21233;-62
2023/03/21 12:44:19;;;;;;;25.90;19.42;;;;;;;16.69;64.58;100417.75;1753712;80;21198;-62
2023/03/21 12:47:32;;;;;;;27.70;19.57;;;;;;;16.84;64.42;100417.53;1752536;80;21196;-62
2023/03/21 12:50:41;;;;;;;28.87;20.50;;;;;;;16.98;64.22;100424.73;1742177;80;21213;-63
2023/03/21 12:54:01;;;;;;;27.73;19.12;;;;;;;16.98;63.82;100428.31;1760407;80;21801;-63
2023/03/21 12:57:23;;;;;;;28.50;19.23;;;;;;;16.99;63.54;100423.13;1724244;82;21189;-64
2023/03/21 13:00:55;;;;;;;27.30;20.80;;;;;;;17.06;63.43;100428.64;1755815;81;21778;-63
2023/03/21 13:04:34;;;;;;;29.05;21.07;;;;;;;17.04;63.11;100419.19;1762047;79;21766;-63
2023/03/21 13:07:48;;;;;;;28.95;20.35;;;;;;;17.20;63.16;100424.25;1758259;81;21236;-63
2023/03/21 13:10:56;;;;;;;25.45;18.48;;;;;;;17.28;62.95;100414.84;1755009;81;21261;-63
2023/03/21 13:14:07;;;;;;;24.20;18.27;;;;;;;17.35;62.80;100418.42;1708246;82;21538;-62
2023/03/21 13:17:30;;;;;;;34.88;22.37;;;;;;;17.21;62.29;100415.39;1702625;82;21284;-63
2023/03/21 13:20:58;;;;;;;27.60;20.30;;;;;;;17.06;62.10;100411.49;1712219;82;21209;-64
2023/03/21 13:24:11;;;;;;;25.77;19.40;;;;;;;16.95;61.89;100414.09;1690325;85;21833;-63
2023/03/21 13:27:38;;;;;;;29.05;20.48;;;;;;;16.76;61.61;100414.43;1690196;83;21229;-63
2023/03/21 13:30:45;;;;;;;23.90;18.37;;;;;;;16.58;61.43;100411.49;1688666;83;21326;-64
2023/03/21 13:33:57;;;;;;;25.65;18.77;;;;;;;16.49;61.41;100410.54;1684456;83;21218;-63
2023/03/21 13:37:04;;;;;;;25.95;19.48;;;;;;;16.41;61.33;100408.81;1705219;82;21245;-64
2023/03/21 13:40:12;;;;;;;27.17;19.32;;;;;;;16.30;61.03;100416.33;1755924;79;21181;-64
2023/03/21 13:43:51;;;;;;;30.37;21.52;;;;;;;16.10;60.78;100404.43;1757521;81;21695;-64
2023/03/21 13:47:09;;;;;;;28.20;20.62;;;;;;;15.97;60.76;100398.36;1769261;79;21715;-63
2023/03/21 13:50:33;;;;;;;28.17;19.50;;;;;;;15.97;60.67;100408.02;1734395;82;21185;-63
2023/03/21 13:53:46;;;;;;;28.60;20.15;;;;;;;15.98;60.48;100404.74;1734969;82;21246;-64
2023/03/21 13:56:56;;;;;;;40.65;24.70;;;;;;;16.07;60.45;100400.19;1720857;83;21364;-62
2023/03/21 14:00:29;;;;;;;55.20;33.20;;;;;;;16.25;60.42;100404.53;1696990;83;21766;-63
2023/03/21 14:03:38;;;;;;;34.10;24.45;;;;;;;16.38;60.56;100410.07;1712093;83;21288;-64
2023/03/21 14:06:52;;;;;;;34.67;24.37;;;;;;;16.57;60.54;100409.77;1750394;81;21183;-65
2023/03/21 14:10:01;;;;;;;62.62;40.00;;;;;;;16.74;60.27;100411.05;1743240;80;21228;-64
2023/03/21 14:13:09;;;;;;;38.17;25.32;;;;;;;16.86;59.97;100414.84;1768011;80;21189;-64
2023/03/21 14:16:24;;;;;;;40.65;25.97;;;;;;;16.95;59.79;100408.56;1766286;80;21213;-63
2023/03/21 14:19:40;;;;;;;42.78;27.32;;;;;;;17.03;59.63;100411.10;1757609;81;21252;-62
2023/03/21 14:22:49;;;;;;;39.60;27.32;;;;;;;17.04;59.30;100410.88;1766908;80;21194;-63
2023/03/21 14:25:54;;;;;;;41.10;26.90;;;;;;;17.02;59.18;100404.71;1757116;80;21326;-63
2023/03/21 14:29:01;;;;;;;37.98;27.02;;;;;;;17.02;58.99;100410.24;1758188;80;21225;-63
2023/03/21 14:32:08;;;;;;;41.58;28.12;;;;;;;16.93;58.72;100404.64;1762122;80;21233;-63
2023/03/21 14:35:16;;;;;;;35.68;24.72;;;;;;;16.91;58.63;100392.94;1767645;80;21304;-63
2023/03/21 14:38:30;;;;;;;30.45;22.17;;;;;;;17.00;58.50;100393.56;1753626;80;21193;-63
2023/03/21 14:41:41;;;;;;;29.10;19.87;;;;;;;17.11;58.10;100394.27;1760226;79;21781;-64
2023/03/21 14:44:49;;;;;;;31.12;21.62;;;;;;;17.09;57.84;100397.26;1758325;81;21185;-63
2023/03/21 14:48:16;;;;;;;39.42;27.00;;;;;;;17.00;57.74;100402.69;1719670;82;22227;-63